Time;durP1;ratioP1;P1;durP2;ratioP2;P2;SDS_P1;SDS_P2;PMS_P1;PMS_P2;Temp;Humidity;BMP_temperature;BMP_pressure;BME280_temperature;BME280_humidity;BME280_pressure;Samples;Min_cycle;Max_cycle;Signal;HPM_P1;HPM_P2
2021/12/31 00:02:24;;;;;;;7.07;2.50;;;;;;;;;;5003414;28;20056;-66
2021/12/31 00:04:50;;;;;;;6.35;2.08;;;;;;;;;;4994999;28;20046;-66
2021/12/31 00:07:17;;;;;;;7.13;2.50;;;;;;;;;;5004618;28;20058;-66
2021/12/31 00:09:43;;;;;;;5.25;2.10;;;;;;;;;;4990117;28;20058;-66
2021/12/31 00:12:09;;;;;;;5.38;2.35;;;;;;;;;;4998824;28;20382;-66
2021/12/31 00:14:36;;;;;;;6.95;2.05;;;;;;;;;;4998811;28;20057;-66
2021/12/31 00:17:03;;;;;;;8.25;2.30;;;;;;;;;;4999075;28;20042;-66
2021/12/31 00:19:32;;;;;;;5.93;2.50;;;;;;;;;;5004344;28;20133;-66
2021/12/31 00:22:09;;;;;;;7.05;2.33;;;;;;;;;;4995229;28;20053;-66
2021/12/31 00:24:36;;;;;;;6.95;2.15;;;;;;;;;;4997304;28;20427;-66
2021/12/31 00:27:02;;;;;;;6.60;1.90;;;;;;;;;;4991852;28;20065;-66
2021/12/31 00:29:28;;;;;;;4.95;2.10;;;;;;;;;;5002613;28;20751;-66
2021/12/31 00:31:55;;;;;;;5.80;2.00;;;;;;;;;;4994319;28;20411;-66
2021/12/31 00:34:21;;;;;;;6.70;1.83;;;;;;;;;;5003026;28;20054;-66
2021/12/31 00:36:48;;;;;;;6.65;2.15;;;;;;;;;;5000862;28;20046;-66
2021/12/31 00:39:14;;;;;;;8.02;1.75;;;;;;;;;;4987443;28;20267;-66
2021/12/31 00:41:42;;;;;;;7.95;1.80;;;;;;;;;;5002528;28;20499;-66
2021/12/31 00:44:08;;;;;;;9.87;2.00;;;;;;;;;;4994518;28;20050;-66
2021/12/31 00:46:35;;;;;;;4.43;1.77;;;;;;;;;;5000793;28;20292;-66
2021/12/31 00:49:03;;;;;;;5.38;1.90;;;;;;;;;;5003597;28;20546;-66
2021/12/31 00:51:30;;;;;;;;;;;;;;;;;;4993696;28;20079;-66
2021/12/31 00:53:56;;;;;;;5.22;2.35;;;;;;;;;;4997116;28;19932;-66
2021/12/31 00:56:22;;;;;;;4.15;1.70;;;;;;;;;;4994803;28;20068;-66
2021/12/31 00:58:48;;;;;;;4.07;1.52;;;;;;;;;;5001945;28;20133;-66
2021/12/31 01:01:20;;;;;;;4.25;1.80;;;;;;;;;;4994666;28;20132;-66
2021/12/31 01:03:47;;;;;;;3.20;1.20;;;;;;;;;;5002659;28;20056;-66
2021/12/31 01:06:14;;;;;;;5.35;2.20;;;;;;;;;;5001472;28;20050;-66
2021/12/31 01:08:43;;;;;;;5.15;1.92;;;;;;;;;;4997585;28;20136;-66
2021/12/31 01:11:09;;;;;;;7.35;1.70;;;;;;;;;;5002588;28;20060;-66
2021/12/31 01:13:49;;;;;;;5.50;1.70;;;;;;;;;;4989882;28;20050;-66
2021/12/31 01:16:17;;;;;;;4.38;1.70;;;;;;;;;;4984623;28;20080;-66
2021/12/31 01:21:20;;;;;;;4.80;1.55;;;;;;;;;;5003153;28;20061;-66
2021/12/31 01:23:50;;;;;;;6.73;1.80;;;;;;;;;;4993521;28;20061;-66
2021/12/31 01:26:17;;;;;;;5.40;1.58;;;;;;;;;;4982245;28;20057;-66
2021/12/31 01:28:43;;;;;;;6.68;1.80;;;;;;;;;;4997200;28;20056;-66
2021/12/31 01:31:10;;;;;;;2.78;1.60;;;;;;;;;;4993491;28;20467;-66
2021/12/31 01:33:36;;;;;;;5.18;1.85;;;;;;;;;;5002622;28;20060;-66
2021/12/31 01:36:04;;;;;;;3.70;1.55;;;;;;;;;;4993191;28;20057;-66
2021/12/31 01:38:31;;;;;;;4.03;1.65;;;;;;;;;;5001708;28;20065;-66
2021/12/31 01:40:57;;;;;;;5.03;1.77;;;;;;;;;;4989085;28;20058;-66
2021/12/31 01:43:24;;;;;;;4.22;1.58;;;;;;;;;;4997310;28;20057;-66
2021/12/31 01:45:56;;;;;;;4.68;1.40;;;;;;;;;;5002347;28;20054;-66
2021/12/31 01:48:33;;;;;;;4.50;1.45;;;;;;;;;;4993186;28;20454;-66
2021/12/31 01:51:00;;;;;;;3.95;1.45;;;;;;;;;;5002170;28;20712;-66
2021/12/31 01:53:27;;;;;;;3.15;1.30;;;;;;;;;;4991198;28;20535;-66
2021/12/31 01:55:57;;;;;;;3.33;1.35;;;;;;;;;;4995805;28;20502;-66
2021/12/31 01:58:24;;;;;;;3.38;1.50;;;;;;;;;;4995683;28;20042;-66
2021/12/31 02:00:51;;;;;;;3.85;1.45;;;;;;;;;;5002325;28;20053;-66
2021/12/31 02:03:18;;;;;;;3.25;1.30;;;;;;;;;;5003085;28;20054;-66
2021/12/31 02:05:45;;;;;;;3.92;1.20;;;;;;;;;;4995023;28;20359;-66
2021/12/31 02:08:11;;;;;;;5.32;1.50;;;;;;;;;;4996534;28;20050;-66
2021/12/31 02:10:37;;;;;;;5.15;1.67;;;;;;;;;;4988001;28;20061;-66
2021/12/31 02:13:04;;;;;;;4.82;1.45;;;;;;;;;;5001283;28;20064;-66
2021/12/31 02:15:30;;;;;;;3.10;1.25;;;;;;;;;;4992885;28;20053;-66
2021/12/31 02:17:59;;;;;;;4.57;1.40;;;;;;;;;;5001034;28;20049;-66
2021/12/31 02:20:36;;;;;;;4.28;1.20;;;;;;;;;;5000956;28;20776;-66
2021/12/31 02:23:07;;;;;;;5.55;1.30;;;;;;;;;;4989978;28;20499;-66
2021/12/31 02:25:35;;;;;;;4.03;1.38;;;;;;;;;;5001014;28;20447;-66
2021/12/31 02:28:02;;;;;;;5.68;1.33;;;;;;;;;;4993213;28;20502;-67
2021/12/31 02:30:29;;;;;;;3.30;1.33;;;;;;;;;;5000261;28;20077;-66
2021/12/31 02:32:56;;;;;;;3.55;1.20;;;;;;;;;;4987842;28;20053;-66
2021/12/31 02:35:22;;;;;;;5.00;1.20;;;;;;;;;;4999763;28;20541;-66
2021/12/31 02:37:49;;;;;;;5.05;1.52;;;;;;;;;;5000531;28;20057;-66
2021/12/31 02:40:16;;;;;;;3.75;1.25;;;;;;;;;;4992161;28;20578;-66
2021/12/31 02:42:42;;;;;;;2.45;1.17;;;;;;;;;;4985200;28;20042;-66
2021/12/31 02:45:10;;;;;;;2.95;1.40;;;;;;;;;;4987993;28;20065;-66
2021/12/31 02:47:43;;;;;;;5.50;1.38;;;;;;;;;;4985130;28;20046;-66
2021/12/31 02:50:12;;;;;;;4.00;1.23;;;;;;;;;;4993611;28;20054;-66
2021/12/31 02:52:38;;;;;;;5.55;1.20;;;;;;;;;;4999100;28;20058;-66
2021/12/31 02:55:05;;;;;;;4.60;1.20;;;;;;;;;;5000986;28;20431;-67
2021/12/31 02:57:32;;;;;;;5.07;1.33;;;;;;;;;;4992868;28;20063;-66
2021/12/31 02:59:58;;;;;;;3.25;1.33;;;;;;;;;;4998676;28;20062;-66
2021/12/31 03:02:25;;;;;;;3.40;1.23;;;;;;;;;;4993109;28;20363;-66
2021/12/31 03:04:52;;;;;;;3.45;1.08;;;;;;;;;;4985654;28;20077;-67
2021/12/31 03:07:19;;;;;;;2.67;1.25;;;;;;;;;;4998005;28;20058;-66
2021/12/31 03:09:47;;;;;;;2.72;1.27;;;;;;;;;;4993671;28;20081;-66
2021/12/31 03:12:14;;;;;;;4.63;1.42;;;;;;;;;;4996888;28;20507;-66
2021/12/31 03:14:44;;;;;;;3.15;1.10;;;;;;;;;;4991523;28;20057;-66
2021/12/31 03:17:12;;;;;;;5.05;1.52;;;;;;;;;;5000433;28;20601;-67
2021/12/31 03:19:38;;;;;;;4.97;1.23;;;;;;;;;;4993408;28;20049;-66
2021/12/31 03:22:05;;;;;;;4.25;1.40;;;;;;;;;;5011818;28;20831;-66
2021/12/31 03:24:32;;;;;;;4.57;1.08;;;;;;;;;;4987912;28;20057;-66
2021/12/31 03:26:58;;;;;;;6.68;1.40;;;;;;;;;;5012371;28;20080;-67
2021/12/31 03:29:24;;;;;;;3.13;1.23;;;;;;;;;;5003069;28;20053;-67
2021/12/31 03:31:51;;;;;;;3.65;1.25;;;;;;;;;;5001321;28;20042;-67
2021/12/31 03:34:17;;;;;;;3.92;1.52;;;;;;;;;;5002007;28;20057;-67
2021/12/31 03:36:44;;;;;;;5.43;1.55;;;;;;;;;;4992153;28;20760;-67
2021/12/31 03:39:10;;;;;;;5.43;1.20;;;;;;;;;;5007429;28;20064;-67
2021/12/31 03:41:37;;;;;;;4.70;1.23;;;;;;;;;;5000387;28;20042;-67
2021/12/31 03:44:04;;;;;;;6.13;1.40;;;;;;;;;;5000810;28;20081;-67
2021/12/31 03:46:31;;;;;;;4.00;1.30;;;;;;;;;;5002045;28;20058;-68
2021/12/31 03:48:57;;;;;;;5.22;1.70;;;;;;;;;;4996014;28;20050;-68
2021/12/31 03:51:24;;;;;;;3.38;1.20;;;;;;;;;;4998838;28;20402;-68
2021/12/31 03:53:50;;;;;;;2.85;1.20;;;;;;;;;;4991041;28;20049;-68
2021/12/31 03:56:19;;;;;;;3.67;1.75;;;;;;;;;;5003981;28;20045;-68
2021/12/31 03:58:46;;;;;;;4.78;1.15;;;;;;;;;;5003953;28;20350;-68
2021/12/31 04:01:12;;;;;;;4.47;1.30;;;;;;;;;;5011797;28;20050;-68
2021/12/31 04:03:39;;;;;;;3.33;1.10;;;;;;;;;;5003693;28;20085;-68
2021/12/31 04:06:05;;;;;;;3.47;1.30;;;;;;;;;;4990764;28;20077;-68
2021/12/31 04:08:31;;;;;;;1.65;0.90;;;;;;;;;;4996844;28;20367;-68
2021/12/31 04:10:58;;;;;;;3.75;1.58;;;;;;;;;;4994789;28;20057;-68
2021/12/31 04:13:24;;;;;;;3.63;1.42;;;;;;;;;;5003249;28;20046;-68
2021/12/31 04:15:50;;;;;;;5.90;1.10;;;;;;;;;;5002801;28;20050;-68
2021/12/31 04:18:17;;;;;;;7.22;1.42;;;;;;;;;;4994908;28;20050;-68
2021/12/31 04:20:45;;;;;;;3.85;1.38;;;;;;;;;;4995328;28;20054;-68
2021/12/31 04:23:26;;;;;;;6.68;1.35;;;;;;;;;;4994616;28;20050;-68
2021/12/31 04:25:53;;;;;;;2.60;1.27;;;;;;;;;;5003469;28;20061;-68
2021/12/31 04:28:19;;;;;;;2.88;1.35;;;;;;;;;;4994425;28;20050;-67
2021/12/31 04:30:46;;;;;;;3.00;1.30;;;;;;;;;;5004751;28;20391;-68
2021/12/31 04:33:12;;;;;;;4.85;1.65;;;;;;;;;;4999235;28;20463;-68
2021/12/31 04:35:38;;;;;;;3.92;1.27;;;;;;;;;;4990354;28;20057;-68
2021/12/31 04:38:05;;;;;;;4.30;1.52;;;;;;;;;;5003559;28;20542;-68
2021/12/31 04:40:31;;;;;;;4.88;1.70;;;;;;;;;;4994387;28;20085;-68
2021/12/31 04:42:57;;;;;;;4.40;1.27;;;;;;;;;;5002786;28;20050;-68
2021/12/31 04:45:25;;;;;;;5.60;1.60;;;;;;;;;;4995251;28;21230;-68
2021/12/31 04:47:51;;;;;;;5.30;1.40;;;;;;;;;;4995810;28;20054;-67
2021/12/31 04:50:18;;;;;;;4.65;1.40;;;;;;;;;;4998049;28;20085;-67
2021/12/31 04:52:44;;;;;;;5.57;1.80;;;;;;;;;;4994330;28;20608;-67
2021/12/31 04:55:11;;;;;;;2.83;0.93;;;;;;;;;;5002468;28;20412;-67
2021/12/31 04:57:38;;;;;;;3.70;1.40;;;;;;;;;;4994512;28;20053;-67
2021/12/31 05:00:05;;;;;;;8.45;1.65;;;;;;;;;;5001237;28;20414;-67
2021/12/31 05:02:31;;;;;;;3.47;1.20;;;;;;;;;;4988258;28;20287;-67
2021/12/31 05:04:58;;;;;;;4.05;1.40;;;;;;;;;;5000323;28;20054;-67
2021/12/31 05:07:24;;;;;;;4.10;1.67;;;;;;;;;;5003246;28;20058;-67
2021/12/31 05:09:50;;;;;;;5.53;1.60;;;;;;;;;;4993267;28;20503;-67
2021/12/31 05:12:23;;;;;;;3.95;1.52;;;;;;;;;;5002724;28;20061;-67
2021/12/31 05:14:49;;;;;;;4.75;1.65;;;;;;;;;;4989571;28;20054;-67
2021/12/31 05:17:15;;;;;;;4.35;1.60;;;;;;;;;;4997647;28;20050;-67
2021/12/31 05:19:44;;;;;;;5.82;1.90;;;;;;;;;;4975708;28;20911;-67
2021/12/31 05:22:11;;;;;;;7.10;1.60;;;;;;;;;;5003061;28;20328;-67
2021/12/31 05:24:37;;;;;;;4.57;1.77;;;;;;;;;;5001362;28;20050;-67
2021/12/31 05:27:04;;;;;;;5.25;1.83;;;;;;;;;;4994129;28;20050;-67
2021/12/31 05:29:30;;;;;;;3.25;1.70;;;;;;;;;;5002363;28;20159;-66
2021/12/31 05:31:57;;;;;;;6.00;1.80;;;;;;;;;;4991713;28;20458;-67
2021/12/31 05:34:23;;;;;;;6.43;1.70;;;;;;;;;;5002044;28;20088;-67
2021/12/31 05:36:49;;;;;;;4.93;1.70;;;;;;;;;;4994097;28;20053;-67
2021/12/31 05:39:16;;;;;;;4.57;1.63;;;;;;;;;;4999645;28;20053;-67
2021/12/31 05:41:42;;;;;;;3.40;1.50;;;;;;;;;;5001808;28;20050;-67
2021/12/31 05:44:09;;;;;;;4.38;1.48;;;;;;;;;;4988112;28;20498;-66
2021/12/31 05:46:35;;;;;;;3.30;1.38;;;;;;;;;;4997260;28;20053;-67
2021/12/31 05:49:03;;;;;;;4.45;1.73;;;;;;;;;;4993390;28;20456;-67
2021/12/31 05:51:30;;;;;;;4.70;1.55;;;;;;;;;;5002297;28;20053;-67
2021/12/31 05:53:57;;;;;;;5.30;1.98;;;;;;;;;;4977222;28;20056;-67
2021/12/31 05:56:23;;;;;;;5.97;1.60;;;;;;;;;;4996622;28;20065;-67
2021/12/31 05:58:50;;;;;;;5.97;1.83;;;;;;;;;;4997212;28;20049;-67
2021/12/31 06:01:16;;;;;;;4.18;1.73;;;;;;;;;;4996268;28;20046;-67
2021/12/31 06:03:43;;;;;;;4.30;1.83;;;;;;;;;;5001892;28;20634;-66
2021/12/31 06:06:09;;;;;;;7.55;2.05;;;;;;;;;;4994104;28;20532;-66
2021/12/31 06:08:35;;;;;;;4.45;1.70;;;;;;;;;;5001642;28;20729;-67
2021/12/31 06:11:02;;;;;;;4.07;1.70;;;;;;;;;;4995990;28;20062;-67
2021/12/31 06:13:28;;;;;;;4.13;1.58;;;;;;;;;;4988013;28;20057;-68
2021/12/31 06:15:57;;;;;;;5.05;1.88;;;;;;;;;;4999635;28;20432;-67
2021/12/31 06:18:27;;;;;;;4.85;1.95;;;;;;;;;;4993482;28;20621;-67
2021/12/31 06:20:53;;;;;;;6.28;2.20;;;;;;;;;;5001085;28;20061;-68
2021/12/31 06:23:19;;;;;;;5.93;1.70;;;;;;;;;;4993617;28;20507;-67
2021/12/31 06:25:46;;;;;;;6.15;2.00;;;;;;;;;;4993447;28;20054;-67
2021/12/31 06:28:12;;;;;;;4.72;2.10;;;;;;;;;;5001147;28;20042;-67
2021/12/31 06:30:38;;;;;;;3.63;1.70;;;;;;;;;;4992478;28;20049;-67
2021/12/31 06:33:05;;;;;;;5.95;1.70;;;;;;;;;;5005210;28;20049;-67
2021/12/31 06:35:32;;;;;;;3.63;1.73;;;;;;;;;;4993163;28;20073;-67
2021/12/31 06:37:59;;;;;;;5.00;1.65;;;;;;;;;;4996045;28;20080;-67
2021/12/31 06:40:25;;;;;;;4.57;1.90;;;;;;;;;;4987906;28;21501;-66
2021/12/31 06:42:51;;;;;;;5.68;1.70;;;;;;;;;;5000628;28;20064;-66
2021/12/31 06:45:18;;;;;;;4.78;2.05;;;;;;;;;;5001287;28;20062;-67
2021/12/31 06:47:44;;;;;;;6.18;1.77;;;;;;;;;;4991114;28;20061;-67
2021/12/31 06:50:10;;;;;;;5.38;1.90;;;;;;;;;;5000924;28;20414;-66
2021/12/31 06:52:38;;;;;;;4.47;1.70;;;;;;;;;;4987976;28;20050;-67
2021/12/31 06:55:07;;;;;;;5.15;1.73;;;;;;;;;;4995290;28;20054;-67
2021/12/31 06:57:35;;;;;;;4.63;1.73;;;;;;;;;;4992903;28;20057;-67
2021/12/31 07:00:03;;;;;;;3.88;2.05;;;;;;;;;;5000167;28;20491;-67
2021/12/31 07:02:29;;;;;;;5.10;1.95;;;;;;;;;;5000082;28;20049;-66
2021/12/31 07:04:56;;;;;;;2.72;1.80;;;;;;;;;;4991423;28;20049;-66
2021/12/31 07:07:22;;;;;;;3.58;1.60;;;;;;;;;;4994070;28;20298;-66
2021/12/31 07:09:48;;;;;;;8.85;2.33;;;;;;;;;;4992561;28;20455;-66
2021/12/31 07:12:15;;;;;;;4.93;1.90;;;;;;;;;;5000908;28;20490;-66
2021/12/31 07:14:41;;;;;;;3.88;1.52;;;;;;;;;;4992452;28;20290;-66
2021/12/31 07:17:08;;;;;;;2.40;1.65;;;;;;;;;;5000295;28;20525;-66
2021/12/31 07:19:34;;;;;;;5.30;2.00;;;;;;;;;;4999691;28;20061;-66
2021/12/31 07:22:01;;;;;;;4.03;1.70;;;;;;;;;;4993306;28;20058;-66
2021/12/31 07:24:27;;;;;;;4.47;1.63;;;;;;;;;;5001286;28;20041;-66
2021/12/31 07:26:54;;;;;;;3.55;1.70;;;;;;;;;;4994557;28;20228;-66
2021/12/31 07:29:20;;;;;;;5.40;1.90;;;;;;;;;;5003983;28;20414;-66
2021/12/31 07:31:47;;;;;;;2.80;1.35;;;;;;;;;;4999590;28;20069;-66
2021/12/31 07:34:13;;;;;;;3.33;1.50;;;;;;;;;;5000853;28;20045;-66
2021/12/31 07:36:39;;;;;;;4.05;1.65;;;;;;;;;;5000374;28;20073;-66
2021/12/31 07:39:08;;;;;;;4.30;1.92;;;;;;;;;;4993264;28;20057;-66
2021/12/31 07:41:34;;;;;;;3.63;1.73;;;;;;;;;;4995244;28;20585;-66
2021/12/31 07:44:01;;;;;;;6.40;1.92;;;;;;;;;;4989137;28;20054;-66
2021/12/31 07:46:27;;;;;;;3.72;1.80;;;;;;;;;;4999436;28;20388;-66
2021/12/31 07:48:53;;;;;;;5.00;1.85;;;;;;;;;;4991749;28;20054;-66
2021/12/31 07:51:20;;;;;;;5.72;1.73;;;;;;;;;;4998736;28;20562;-66
2021/12/31 07:53:46;;;;;;;4.22;1.85;;;;;;;;;;4998533;28;20299;-66
2021/12/31 07:56:12;;;;;;;4.10;1.70;;;;;;;;;;4993025;28;20054;-66
2021/12/31 07:58:39;;;;;;;5.43;1.88;;;;;;;;;;5001375;28;20049;-66
2021/12/31 08:01:05;;;;;;;4.28;1.52;;;;;;;;;;4991130;28;20418;-66
2021/12/31 08:03:33;;;;;;;4.15;1.73;;;;;;;;;;5000388;28;20057;-66
2021/12/31 08:05:59;;;;;;;5.27;2.03;;;;;;;;;;4987860;28;20064;-66
2021/12/31 08:08:25;;;;;;;5.80;1.80;;;;;;;;;;4995396;28;20054;-66
2021/12/31 08:10:52;;;;;;;3.30;1.80;;;;;;;;;;4999525;28;20041;-66
2021/12/31 08:13:22;;;;;;;5.07;1.85;;;;;;;;;;4992132;28;20060;-66
2021/12/31 08:15:48;;;;;;;4.95;1.80;;;;;;;;;;4999197;28;20072;-66
2021/12/31 08:18:15;;;;;;;4.68;1.65;;;;;;;;;;4988232;28;20058;-66
2021/12/31 08:20:41;;;;;;;3.42;1.63;;;;;;;;;;4994080;28;20994;-66
2021/12/31 08:23:09;;;;;;;4.80;1.73;;;;;;;;;;5002206;28;20065;-66
2021/12/31 08:25:36;;;;;;;3.30;1.75;;;;;;;;;;5000591;28;20045;-66
2021/12/31 08:28:03;;;;;;;2.92;1.60;;;;;;;;;;5003584;28;20423;-66
2021/12/31 08:30:29;;;;;;;3.55;1.73;;;;;;;;;;5008584;28;20449;-66
2021/12/31 08:32:56;;;;;;;5.15;1.70;;;;;;;;;;5001969;28;20357;-66
2021/12/31 08:35:24;;;;;;;4.13;1.77;;;;;;;;;;4994973;28;20054;-66
2021/12/31 08:37:50;;;;;;;6.05;2.00;;;;;;;;;;5002754;28;20050;-66
2021/12/31 08:40:17;;;;;;;3.92;2.00;;;;;;;;;;5003035;28;20680;-67
2021/12/31 08:42:44;;;;;;;3.97;1.60;;;;;;;;;;4997010;28;20164;-66
2021/12/31 08:45:12;;;;;;;4.13;1.77;;;;;;;;;;5003376;28;20515;-66
2021/12/31 08:47:39;;;;;;;4.53;2.10;;;;;;;;;;4991974;28;20046;-66
2021/12/31 08:50:05;;;;;;;4.07;1.65;;;;;;;;;;5002853;28;20625;-66
2021/12/31 08:52:32;;;;;;;6.80;1.63;;;;;;;;;;4994039;28;20061;-66
2021/12/31 08:54:58;;;;;;;5.82;2.17;;;;;;;;;;4994741;28;20136;-66
2021/12/31 08:57:24;;;;;;;5.15;2.00;;;;;;;;;;5001185;28;20053;-66
2021/12/31 08:59:51;;;;;;;3.35;1.63;;;;;;;;;;4993822;28;20049;-66
2021/12/31 09:02:17;;;;;;;3.67;1.55;;;;;;;;;;5002144;28;20497;-65
2021/12/31 09:04:44;;;;;;;3.38;1.50;;;;;;;;;;4993926;28;20434;-66
2021/12/31 09:07:10;;;;;;;4.68;1.65;;;;;;;;;;4997677;28;20406;-66
2021/12/31 09:09:36;;;;;;;4.05;1.60;;;;;;;;;;4989907;28;20053;-66
2021/12/31 09:12:03;;;;;;;5.03;1.85;;;;;;;;;;5002846;28;20056;-66
2021/12/31 09:14:29;;;;;;;5.32;1.88;;;;;;;;;;5002070;28;20439;-66
2021/12/31 09:16:57;;;;;;;3.60;1.50;;;;;;;;;;4993799;28;20490;-66
2021/12/31 09:19:23;;;;;;;1.70;1.37;;;;;;;;;;5002483;28;20056;-66
2021/12/31 09:21:49;;;;;;;2.55;1.55;;;;;;;;;;4989806;28;20057;-66
2021/12/31 09:24:16;;;;;;;3.65;1.70;;;;;;;;;;4997724;28;20065;-66
2021/12/31 09:26:42;;;;;;;3.33;1.70;;;;;;;;;;4996635;28;20053;-66
2021/12/31 09:29:08;;;;;;;2.33;1.60;;;;;;;;;;5002438;28;20046;-66
2021/12/31 09:31:35;;;;;;;4.30;2.05;;;;;;;;;;5005715;28;20058;-66
2021/12/31 09:34:01;;;;;;;4.00;1.83;;;;;;;;;;4997609;28;20054;-66
2021/12/31 09:36:28;;;;;;;4.03;2.00;;;;;;;;;;4996872;28;20053;-66
2021/12/31 09:38:55;;;;;;;3.65;2.33;;;;;;;;;;4989067;28;20064;-66
2021/12/31 09:41:21;;;;;;;6.32;1.70;;;;;;;;;;5004410;28;20046;-67
2021/12/31 09:43:49;;;;;;;4.88;1.65;;;;;;;;;;5000260;28;20050;-66
2021/12/31 09:46:15;;;;;;;3.75;1.58;;;;;;;;;;4997553;28;20389;-66
2021/12/31 09:48:42;;;;;;;5.05;1.80;;;;;;;;;;5002941;28;20540;-66
2021/12/31 09:51:08;;;;;;;3.67;1.77;;;;;;;;;;4988675;28;20038;-66
2021/12/31 09:53:35;;;;;;;2.20;1.60;;;;;;;;;;5000782;28;20045;-66
2021/12/31 09:56:01;;;;;;;3.92;1.67;;;;;;;;;;4994254;28;20257;-66
2021/12/31 09:58:27;;;;;;;4.63;1.85;;;;;;;;;;4995009;28;20042;-66
2021/12/31 10:01:00;;;;;;;5.30;1.77;;;;;;;;;;4999376;28;20505;-65
2021/12/31 10:03:31;;;;;;;3.88;2.30;;;;;;;;;;4988999;28;20123;-65
2021/12/31 10:05:58;;;;;;;6.78;1.90;;;;;;;;;;5004988;28;20050;-65
2021/12/31 10:08:25;;;;;;;3.83;1.80;;;;;;;;;;5005462;28;20132;-66
2021/12/31 10:11:11;;;;;;;4.07;2.07;;;;;;;;;;5016971;28;20049;-66
2021/12/31 10:13:39;;;;;;;5.22;1.83;;;;;;;;;;4993399;28;20061;-66
2021/12/31 10:16:06;;;;;;;;;;;;;;;;;;5004044;28;20057;-66
2021/12/31 10:18:36;;;;;;;4.13;1.85;;;;;;;;;;4987711;28;20189;-66
2021/12/31 10:21:04;;;;;;;5.45;1.88;;;;;;;;;;4998833;28;20064;-66
2021/12/31 10:23:30;;;;;;;4.53;2.03;;;;;;;;;;5003265;28;20414;-66
2021/12/31 10:26:13;;;;;;;3.92;1.67;;;;;;;;;;4991267;28;20705;-66
2021/12/31 10:28:51;;;;;;;2.60;1.63;;;;;;;;;;4998862;28;20129;-66
2021/12/31 10:31:17;;;;;;;5.10;1.88;;;;;;;;;;4989976;28;20411;-66
2021/12/31 10:33:45;;;;;;;4.57;1.70;;;;;;;;;;4996768;28;20061;-66
2021/12/31 10:36:30;;;;;;;2.03;1.47;;;;;;;;;;4992336;28;20072;-66
2021/12/31 10:38:57;;;;;;;4.13;1.65;;;;;;;;;;4999223;28;20057;-66
2021/12/31 10:41:24;;;;;;;2.97;1.50;;;;;;;;;;4993863;28;20054;-66
2021/12/31 10:43:58;;;;;;;2.00;1.50;;;;;;;;;;5000981;28;20050;-66
2021/12/31 10:46:24;;;;;;;4.57;2.00;;;;;;;;;;4993756;28;20056;-67
2021/12/31 10:48:53;;;;;;;5.35;1.75;;;;;;;;;;4994786;28;20060;-66
2021/12/31 10:51:39;;;;;;;2.97;1.60;;;;;;;;;;5009285;28;20509;-67
2021/12/31 10:55:16;;;;;;;2.03;1.70;;;;;;;;;;4979071;28;20489;-66
2021/12/31 10:57:09;;;;;;;5.25;2.15;;;;;;;;;;4992462;28;20049;-66
2021/12/31 10:59:37;;;;;;;6.18;2.30;;;;;;;;;;4987385;28;20470;-66
2021/12/31 11:02:04;;;;;;;4.78;1.92;;;;;;;;;;5004855;28;20068;-66
2021/12/31 11:04:34;;;;;;;4.75;2.15;;;;;;;;;;4992634;28;20050;-66
2021/12/31 11:07:00;;;;;;;4.90;1.63;;;;;;;;;;5000473;28;20061;-66
2021/12/31 11:09:29;;;;;;;3.15;2.13;;;;;;;;;;5000789;28;20050;-67
2021/12/31 11:11:57;;;;;;;3.60;1.80;;;;;;;;;;4987137;28;20418;-66
2021/12/31 11:14:24;;;;;;;3.88;2.13;;;;;;;;;;4996176;28;20050;-66
2021/12/31 11:16:50;;;;;;;2.88;1.60;;;;;;;;;;4993408;28;20060;-66
2021/12/31 11:19:17;;;;;;;4.00;1.80;;;;;;;;;;4999584;28;20495;-66
2021/12/31 11:21:47;;;;;;;3.92;1.80;;;;;;;;;;4991268;28;20550;-66
2021/12/31 11:24:27;;;;;;;4.25;1.65;;;;;;;;;;5000194;28;20077;-66
2021/12/31 11:26:54;;;;;;;4.32;1.90;;;;;;;;;;4994136;28;20782;-67
2021/12/31 11:29:20;;;;;;;3.97;1.90;;;;;;;;;;4994366;28;20056;-67
2021/12/31 11:31:46;;;;;;;7.57;2.28;;;;;;;;;;5004166;28;20069;-67
2021/12/31 11:34:14;;;;;;;3.70;1.95;;;;;;;;;;4994000;28;20049;-67
2021/12/31 11:36:42;;;;;;;4.88;2.10;;;;;;;;;;5002667;28;20056;-66
2021/12/31 11:39:14;;;;;;;3.10;1.85;;;;;;;;;;4990286;28;20050;-66
2021/12/31 11:42:02;;;;;;;3.67;2.05;;;;;;;;;;4994233;28;20054;-66
2021/12/31 11:44:29;;;;;;;5.70;1.90;;;;;;;;;;4991165;28;20109;-65
2021/12/31 11:47:18;;;;;;;5.95;1.98;;;;;;;;;;4996676;28;20058;-65
2021/12/31 11:49:45;;;;;;;4.20;1.92;;;;;;;;;;4999390;28;20049;-66
2021/12/31 11:52:14;;;;;;;4.13;2.00;;;;;;;;;;4995649;28;20608;-66
2021/12/31 11:54:44;;;;;;;5.60;2.35;;;;;;;;;;4994246;28;20050;-66
2021/12/31 11:57:11;;;;;;;4.10;1.92;;;;;;;;;;4993095;28;20459;-66
2021/12/31 11:59:43;;;;;;;8.07;2.13;;;;;;;;;;5002876;28;20053;-67
2021/12/31 12:02:13;;;;;;;7.63;2.40;;;;;;;;;;4994148;28;20054;-67
2021/12/31 12:04:41;;;;;;;6.55;2.25;;;;;;;;;;5002553;28;20485;-66
2021/12/31 12:07:26;;;;;;;3.65;1.83;;;;;;;;;;5002782;28;20054;-66
2021/12/31 12:09:53;;;;;;;3.80;2.05;;;;;;;;;;4999442;28;20061;-66
2021/12/31 12:12:31;;;;;;;8.73;3.65;;;;;;;;;;5012238;28;20396;-67
2021/12/31 12:14:58;;;;;;;5.97;2.97;;;;;;;;;;4993280;28;20058;-66
2021/12/31 12:17:30;;;;;;;7.88;2.33;;;;;;;;;;5004003;28;20053;-66
2021/12/31 12:19:57;;;;;;;7.93;2.50;;;;;;;;;;4995518;28;20068;-66
2021/12/31 12:22:31;;;;;;;6.90;2.30;;;;;;;;;;5000283;28;20056;-66
2021/12/31 12:25:02;;;;;;;5.78;2.25;;;;;;;;;;4994718;28;20050;-66
2021/12/31 12:27:29;;;;;;;2.95;1.65;;;;;;;;;;5005024;28;20408;-66
2021/12/31 12:29:57;;;;;;;6.65;2.30;;;;;;;;;;5007600;28;20049;-66
2021/12/31 12:33:16;;;;;;;4.40;1.90;;;;;;;;;;4996271;28;20050;-66
2021/12/31 12:35:26;;;;;;;5.47;2.30;;;;;;;;;;4993831;28;20053;-66
2021/12/31 12:37:55;;;;;;;6.50;2.17;;;;;;;;;;4991693;28;20054;-66
2021/12/31 12:40:38;;;;;;;3.28;1.98;;;;;;;;;;5007318;28;20073;-67
2021/12/31 12:43:06;;;;;;;5.85;2.25;;;;;;;;;;4994892;28;20285;-67
2021/12/31 12:45:37;;;;;;;5.55;2.10;;;;;;;;;;5003886;28;20053;-66
2021/12/31 12:48:03;;;;;;;6.97;2.13;;;;;;;;;;4985927;28;20135;-66
2021/12/31 12:50:30;;;;;;;5.10;2.28;;;;;;;;;;4998004;28;20054;-66
2021/12/31 12:52:56;;;;;;;7.18;2.10;;;;;;;;;;5003903;28;20100;-66
2021/12/31 12:55:23;;;;;;;6.32;2.25;;;;;;;;;;4994704;28;20049;-67
2021/12/31 12:57:54;;;;;;;4.72;2.15;;;;;;;;;;4990554;28;20426;-67
2021/12/31 13:00:39;;;;;;;4.70;2.25;;;;;;;;;;4990894;28;20367;-66
2021/12/31 13:03:09;;;;;;;7.13;2.60;;;;;;;;;;4996906;28;20073;-67
2021/12/31 13:05:37;;;;;;;6.20;2.15;;;;;;;;;;4993036;28;20053;-66
2021/12/31 13:08:04;;;;;;;6.38;2.35;;;;;;;;;;5001805;28;20046;-66
2021/12/31 13:10:31;;;;;;;5.70;2.03;;;;;;;;;;5005607;28;20069;-67
2021/12/31 13:12:58;;;;;;;6.13;2.40;;;;;;;;;;4995256;28;20148;-66
2021/12/31 13:15:25;;;;;;;6.88;2.25;;;;;;;;;;4997398;28;20054;-66
2021/12/31 13:18:05;;;;;;;5.55;2.30;;;;;;;;;;4988610;28;20148;-66
2021/12/31 13:20:32;;;;;;;6.10;2.60;;;;;;;;;;5000812;28;20058;-66
2021/12/31 13:23:00;;;;;;;5.18;2.45;;;;;;;;;;4994321;28;20130;-66
2021/12/31 13:25:37;;;;;;;4.40;2.70;;;;;;;;;;5002639;28;20061;-66
2021/12/31 13:28:14;;;;;;;5.32;2.60;;;;;;;;;;4993099;28;20054;-66
2021/12/31 13:30:54;;;;;;;5.57;2.80;;;;;;;;;;5004048;28;20477;-66
2021/12/31 13:33:24;;;;;;;4.60;2.83;;;;;;;;;;5001456;28;20442;-66
2021/12/31 13:36:09;;;;;;;7.05;3.13;;;;;;;;;;4994364;28;20064;-65
2021/12/31 13:38:54;;;;;;;6.50;3.20;;;;;;;;;;5002239;28;20065;-66
2021/12/31 13:41:21;;;;;;;6.38;3.38;;;;;;;;;;4995316;28;20078;-66
2021/12/31 13:43:53;;;;;;;6.85;3.75;;;;;;;;;;4993769;28;20053;-66
2021/12/31 13:46:40;;;;;;;8.32;4.68;;;;;;;;;;4988716;28;20050;-65
2021/12/31 13:49:08;;;;;;;12.02;6.30;;;;;;;;;;5003177;28;20093;-65
2021/12/31 13:51:35;;;;;;;13.93;7.30;;;;;;;;;;4994736;28;20049;-66
2021/12/31 13:54:03;;;;;;;16.77;8.27;;;;;;;;;;5002049;28;20442;-65
2021/12/31 13:56:35;;;;;;;18.60;8.80;;;;;;;;;;4997787;28;20053;-65
2021/12/31 13:59:17;;;;;;;15.13;8.80;;;;;;;;;;4987646;28;20104;-66
2021/12/31 14:02:02;;;;;;;13.77;7.10;;;;;;;;;;5002290;28;20068;-66
2021/12/31 14:04:30;;;;;;;11.98;6.70;;;;;;;;;;4992898;28;20138;-66
2021/12/31 14:07:06;;;;;;;11.95;6.45;;;;;;;;;;5001334;28;20057;-66
2021/12/31 14:09:32;;;;;;;10.90;5.50;;;;;;;;;;4990526;28;20319;-66
2021/12/31 14:12:02;;;;;;;10.07;5.10;;;;;;;;;;4995632;28;20356;-66
2021/12/31 14:14:33;;;;;;;8.65;5.07;;;;;;;;;;4992057;28;20482;-66
2021/12/31 14:16:59;;;;;;;10.07;5.20;;;;;;;;;;5000751;28;20065;-66
2021/12/31 14:19:25;;;;;;;10.50;4.78;;;;;;;;;;4999828;28;20050;-66
2021/12/31 14:21:52;;;;;;;17.50;6.43;;;;;;;;;;4995565;28;20060;-66
2021/12/31 14:24:21;;;;;;;7.60;4.63;;;;;;;;;;4997697;28;20061;-65
2021/12/31 14:26:48;;;;;;;7.15;4.50;;;;;;;;;;4992379;28;20053;-65
2021/12/31 14:29:14;;;;;;;8.88;4.15;;;;;;;;;;5007582;28;20049;-66
2021/12/31 14:31:40;;;;;;;10.90;4.60;;;;;;;;;;5002552;28;20061;-66
2021/12/31 14:34:07;;;;;;;9.43;4.60;;;;;;;;;;5001986;28;20053;-66
2021/12/31 14:36:33;;;;;;;8.75;4.40;;;;;;;;;;5000653;28;20050;-66
2021/12/31 14:39:02;;;;;;;7.90;4.30;;;;;;;;;;4987900;28;20225;-66
2021/12/31 14:41:31;;;;;;;10.75;4.72;;;;;;;;;;5002715;28;20137;-66
2021/12/31 14:43:59;;;;;;;16.80;7.57;;;;;;;;;;4987744;28;20526;-66
2021/12/31 14:46:27;;;;;;;9.57;5.40;;;;;;;;;;4998039;28;20132;-66
2021/12/31 14:48:53;;;;;;;13.57;6.22;;;;;;;;;;4991301;28;20054;-66
2021/12/31 14:51:20;;;;;;;10.75;5.13;;;;;;;;;;4992876;28;20053;-66
2021/12/31 14:53:46;;;;;;;11.07;4.82;;;;;;;;;;4997919;28;20070;-66